sensor_id;sensor_type;location;lat;lon;timestamp;P1;durP1;ratioP1;P2;durP2;ratioP2
12802;SDS011;6465;42.700;23.278;2024-01-07T00:01:03;21.57;;;16.43;;
12802;SDS011;6465;42.700;23.278;2024-01-07T00:03:30;22.47;;;16.17;;
12802;SDS011;6465;42.700;23.278;2024-01-07T00:05:58;27.17;;;20.50;;
12802;SDS011;6465;42.700;23.278;2024-01-07T00:08:25;28.93;;;22.17;;
12802;SDS011;6465;42.700;23.278;2024-01-07T00:10:53;37.27;;;27.30;;
12802;SDS011;6465;42.700;23.278;2024-01-07T00:13:19;31.87;;;24.23;;
12802;SDS011;6465;42.700;23.278;2024-01-07T00:15:46;37.27;;;27.13;;
12802;SDS011;6465;42.700;23.278;2024-01-07T00:18:13;34.57;;;23.80;;
12802;SDS011;6465;42.700;23.278;2024-01-07T00:20:40;32.53;;;22.10;;
12802;SDS011;6465;42.700;23.278;2024-01-07T00:23:09;31.73;;;21.77;;
12802;SDS011;6465;42.700;23.278;2024-01-07T00:25:36;34.07;;;20.93;;
12802;SDS011;6465;42.700;23.278;2024-01-07T00:28:03;26.60;;;19.53;;
12802;SDS011;6465;42.700;23.278;2024-01-07T00:30:31;26.17;;;18.97;;
12802;SDS011;6465;42.700;23.278;2024-01-07T00:32:58;25.90;;;18.87;;
12802;SDS011;6465;42.700;23.278;2024-01-07T00:35:25;22.00;;;17.07;;
12802;SDS011;6465;42.700;23.278;2024-01-07T00:37:52;27.67;;;17.70;;
12802;SDS011;6465;42.700;23.278;2024-01-07T00:40:23;22.70;;;16.73;;
12802;SDS011;6465;42.700;23.278;2024-01-07T00:42:50;20.03;;;16.03;;
12802;SDS011;6465;42.700;23.278;2024-01-07T00:45:17;19.40;;;15.77;;
12802;SDS011;6465;42.700;23.278;2024-01-07T00:47:44;29.00;;;21.37;;
12802;SDS011;6465;42.700;23.278;2024-01-07T00:50:11;31.47;;;22.93;;
12802;SDS011;6465;42.700;23.278;2024-01-07T00:52:38;33.80;;;27.63;;
12802;SDS011;6465;42.700;23.278;2024-01-07T00:55:07;45.37;;;36.40;;
12802;SDS011;6465;42.700;23.278;2024-01-07T00:57:36;44.43;;;35.43;;
12802;SDS011;6465;42.700;23.278;2024-01-07T01:00:04;45.40;;;32.83;;
12802;SDS011;6465;42.700;23.278;2024-01-07T01:02:33;44.13;;;33.67;;
12802;SDS011;6465;42.700;23.278;2024-01-07T01:05:01;41.60;;;28.70;;
12802;SDS011;6465;42.700;23.278;2024-01-07T01:07:28;33.50;;;26.40;;
12802;SDS011;6465;42.700;23.278;2024-01-07T01:09:55;39.00;;;29.93;;
12802;SDS011;6465;42.700;23.278;2024-01-07T01:12:22;42.00;;;33.03;;
12802;SDS011;6465;42.700;23.278;2024-01-07T01:14:50;36.70;;;27.93;;
12802;SDS011;6465;42.700;23.278;2024-01-07T01:17:18;38.57;;;27.10;;
12802;SDS011;6465;42.700;23.278;2024-01-07T01:19:45;48.17;;;31.40;;
12802;SDS011;6465;42.700;23.278;2024-01-07T01:22:12;49.03;;;32.53;;
12802;SDS011;6465;42.700;23.278;2024-01-07T01:24:39;40.87;;;27.50;;
12802;SDS011;6465;42.700;23.278;2024-01-07T01:27:06;42.20;;;28.50;;
12802;SDS011;6465;42.700;23.278;2024-01-07T01:29:33;32.70;;;25.13;;
12802;SDS011;6465;42.700;23.278;2024-01-07T01:32:01;45.20;;;32.93;;
12802;SDS011;6465;42.700;23.278;2024-01-07T01:34:28;59.03;;;41.17;;
12802;SDS011;6465;42.700;23.278;2024-01-07T01:36:55;47.70;;;34.80;;
12802;SDS011;6465;42.700;23.278;2024-01-07T01:39:22;57.03;;;36.10;;
12802;SDS011;6465;42.700;23.278;2024-01-07T01:41:49;66.73;;;37.37;;
12802;SDS011;6465;42.700;23.278;2024-01-07T01:44:16;82.77;;;44.47;;
12802;SDS011;6465;42.700;23.278;2024-01-07T01:46:44;59.23;;;39.20;;
12802;SDS011;6465;42.700;23.278;2024-01-07T01:49:13;45.33;;;32.93;;
12802;SDS011;6465;42.700;23.278;2024-01-07T01:51:40;52.63;;;33.67;;
12802;SDS011;6465;42.700;23.278;2024-01-07T01:54:08;54.87;;;33.53;;
12802;SDS011;6465;42.700;23.278;2024-01-07T01:56:35;48.47;;;34.33;;
12802;SDS011;6465;42.700;23.278;2024-01-07T01:59:02;57.23;;;37.03;;
12802;SDS011;6465;42.700;23.278;2024-01-07T02:01:29;53.97;;;37.37;;
12802;SDS011;6465;42.700;23.278;2024-01-07T02:03:57;60.33;;;38.50;;
12802;SDS011;6465;42.700;23.278;2024-01-07T02:06:25;52.77;;;34.67;;
12802;SDS011;6465;42.700;23.278;2024-01-07T02:08:52;53.13;;;33.00;;
12802;SDS011;6465;42.700;23.278;2024-01-07T02:11:21;43.30;;;31.20;;
12802;SDS011;6465;42.700;23.278;2024-01-07T02:13:48;47.33;;;31.40;;
12802;SDS011;6465;42.700;23.278;2024-01-07T02:16:15;50.30;;;33.83;;
12802;SDS011;6465;42.700;23.278;2024-01-07T02:18:44;46.00;;;32.37;;
12802;SDS011;6465;42.700;23.278;2024-01-07T02:21:12;38.17;;;28.93;;
12802;SDS011;6465;42.700;23.278;2024-01-07T02:23:41;46.37;;;31.37;;
12802;SDS011;6465;42.700;23.278;2024-01-07T02:26:10;42.97;;;31.37;;
12802;SDS011;6465;42.700;23.278;2024-01-07T02:28:37;37.80;;;28.10;;
12802;SDS011;6465;42.700;23.278;2024-01-07T02:31:04;17.10;;;14.53;;
12802;SDS011;6465;42.700;23.278;2024-01-07T02:33:30;22.00;;;15.23;;
12802;SDS011;6465;42.700;23.278;2024-01-07T02:35:57;20.30;;;14.83;;
12802;SDS011;6465;42.700;23.278;2024-01-07T02:38:24;16.13;;;13.47;;
12802;SDS011;6465;42.700;23.278;2024-01-07T02:40:51;19.93;;;14.27;;
12802;SDS011;6465;42.700;23.278;2024-01-07T02:43:20;17.30;;;14.77;;
12802;SDS011;6465;42.700;23.278;2024-01-07T02:45:47;21.37;;;17.30;;
12802;SDS011;6465;42.700;23.278;2024-01-07T02:48:14;19.13;;;15.20;;
12802;SDS011;6465;42.700;23.278;2024-01-07T02:50:41;21.37;;;17.33;;
12802;SDS011;6465;42.700;23.278;2024-01-07T02:53:08;24.97;;;16.83;;
12802;SDS011;6465;42.700;23.278;2024-01-07T02:55:36;21.50;;;16.23;;
12802;SDS011;6465;42.700;23.278;2024-01-07T02:58:03;21.30;;;15.03;;
12802;SDS011;6465;42.700;23.278;2024-01-07T03:00:31;17.77;;;15.53;;
12802;SDS011;6465;42.700;23.278;2024-01-07T03:02:58;18.10;;;14.63;;
12802;SDS011;6465;42.700;23.278;2024-01-07T03:05:26;18.50;;;15.53;;
12802;SDS011;6465;42.700;23.278;2024-01-07T03:07:57;23.13;;;17.80;;
12802;SDS011;6465;42.700;23.278;2024-01-07T03:10:24;23.50;;;17.40;;
12802;SDS011;6465;42.700;23.278;2024-01-07T03:12:51;23.10;;;19.07;;
12802;SDS011;6465;42.700;23.278;2024-01-07T03:15:18;24.37;;;19.93;;
12802;SDS011;6465;42.700;23.278;2024-01-07T03:17:47;31.23;;;17.43;;
12802;SDS011;6465;42.700;23.278;2024-01-07T03:20:14;25.10;;;19.03;;
12802;SDS011;6465;42.700;23.278;2024-01-07T03:22:41;24.80;;;17.20;;
12802;SDS011;6465;42.700;23.278;2024-01-07T03:25:08;19.10;;;16.10;;
12802;SDS011;6465;42.700;23.278;2024-01-07T03:27:35;17.27;;;14.20;;
12802;SDS011;6465;42.700;23.278;2024-01-07T03:30:02;19.93;;;14.83;;
12802;SDS011;6465;42.700;23.278;2024-01-07T03:32:30;21.23;;;15.87;;
12802;SDS011;6465;42.700;23.278;2024-01-07T03:34:58;20.00;;;15.43;;
12802;SDS011;6465;42.700;23.278;2024-01-07T03:37:25;19.33;;;14.87;;
12802;SDS011;6465;42.700;23.278;2024-01-07T03:39:52;16.03;;;13.83;;
12802;SDS011;6465;42.700;23.278;2024-01-07T03:42:19;19.80;;;14.40;;
12802;SDS011;6465;42.700;23.278;2024-01-07T03:44:46;16.60;;;13.50;;
12802;SDS011;6465;42.700;23.278;2024-01-07T03:47:15;8.77;;;6.97;;
12802;SDS011;6465;42.700;23.278;2024-01-07T03:49:42;7.83;;;6.07;;
12802;SDS011;6465;42.700;23.278;2024-01-07T03:52:10;5.90;;;5.30;;
12802;SDS011;6465;42.700;23.278;2024-01-07T03:54:37;9.10;;;7.10;;
12802;SDS011;6465;42.700;23.278;2024-01-07T03:57:04;8.47;;;6.20;;
12802;SDS011;6465;42.700;23.278;2024-01-07T03:59:31;5.90;;;4.50;;
12802;SDS011;6465;42.700;23.278;2024-01-07T04:01:58;4.40;;;3.90;;
12802;SDS011;6465;42.700;23.278;2024-01-07T04:04:25;4.93;;;4.43;;
12802;SDS011;6465;42.700;23.278;2024-01-07T04:06:52;5.67;;;4.93;;
12802;SDS011;6465;42.700;23.278;2024-01-07T04:09:20;5.80;;;5.20;;
12802;SDS011;6465;42.700;23.278;2024-01-07T04:11:47;4.43;;;4.03;;
12802;SDS011;6465;42.700;23.278;2024-01-07T04:14:15;4.30;;;3.90;;
12802;SDS011;6465;42.700;23.278;2024-01-07T04:16:42;5.17;;;4.40;;
12802;SDS011;6465;42.700;23.278;2024-01-07T04:19:09;4.30;;;3.90;;
12802;SDS011;6465;42.700;23.278;2024-01-07T04:21:36;3.97;;;3.63;;
12802;SDS011;6465;42.700;23.278;2024-01-07T04:24:03;5.27;;;4.87;;
12802;SDS011;6465;42.700;23.278;2024-01-07T04:26:32;4.73;;;4.30;;
12802;SDS011;6465;42.700;23.278;2024-01-07T04:28:59;5.00;;;4.60;;
12802;SDS011;6465;42.700;23.278;2024-01-07T04:31:26;3.77;;;3.47;;
12802;SDS011;6465;42.700;23.278;2024-01-07T04:33:53;2.80;;;2.60;;
12802;SDS011;6465;42.700;23.278;2024-01-07T04:36:21;2.60;;;2.40;;
12802;SDS011;6465;42.700;23.278;2024-01-07T04:38:48;3.43;;;3.23;;
12802;SDS011;6465;42.700;23.278;2024-01-07T04:41:15;4.47;;;4.07;;
12802;SDS011;6465;42.700;23.278;2024-01-07T04:43:43;7.20;;;5.10;;
12802;SDS011;6465;42.700;23.278;2024-01-07T04:46:11;6.63;;;5.57;;
12802;SDS011;6465;42.700;23.278;2024-01-07T04:48:38;6.53;;;5.93;;
12802;SDS011;6465;42.700;23.278;2024-01-07T04:51:05;6.73;;;6.13;;
12802;SDS011;6465;42.700;23.278;2024-01-07T04:53:33;6.73;;;6.13;;
12802;SDS011;6465;42.700;23.278;2024-01-07T04:56:00;7.40;;;6.67;;
12802;SDS011;6465;42.700;23.278;2024-01-07T04:58:27;9.73;;;7.97;;
12802;SDS011;6465;42.700;23.278;2024-01-07T05:00:56;11.23;;;10.20;;
12802;SDS011;6465;42.700;23.278;2024-01-07T05:03:23;10.20;;;9.30;;
12802;SDS011;6465;42.700;23.278;2024-01-07T05:05:50;9.90;;;9.00;;
12802;SDS011;6465;42.700;23.278;2024-01-07T05:08:17;16.90;;;14.07;;
12802;SDS011;6465;42.700;23.278;2024-01-07T05:10:44;10.00;;;8.97;;
12802;SDS011;6465;42.700;23.278;2024-01-07T05:13:11;17.07;;;15.27;;
12802;SDS011;6465;42.700;23.278;2024-01-07T05:15:38;10.27;;;7.83;;
12802;SDS011;6465;42.700;23.278;2024-01-07T05:18:08;8.97;;;8.07;;
12802;SDS011;6465;42.700;23.278;2024-01-07T05:20:35;6.67;;;6.07;;
12802;SDS011;6465;42.700;23.278;2024-01-07T05:23:02;7.53;;;5.97;;
12802;SDS011;6465;42.700;23.278;2024-01-07T05:25:29;6.83;;;6.00;;
12802;SDS011;6465;42.700;23.278;2024-01-07T05:27:56;7.70;;;6.30;;
12802;SDS011;6465;42.700;23.278;2024-01-07T05:30:23;8.30;;;6.60;;
12802;SDS011;6465;42.700;23.278;2024-01-07T05:32:50;8.53;;;6.20;;
12802;SDS011;6465;42.700;23.278;2024-01-07T05:35:19;10.20;;;7.27;;
12802;SDS011;6465;42.700;23.278;2024-01-07T05:37:45;8.77;;;6.83;;
12802;SDS011;6465;42.700;23.278;2024-01-07T05:40:12;8.50;;;6.90;;
12802;SDS011;6465;42.700;23.278;2024-01-07T05:42:40;9.10;;;7.47;;
12802;SDS011;6465;42.700;23.278;2024-01-07T05:45:07;8.53;;;7.37;;
12802;SDS011;6465;42.700;23.278;2024-01-07T05:47:34;9.23;;;7.10;;
12802;SDS011;6465;42.700;23.278;2024-01-07T05:50:01;9.83;;;7.43;;
12802;SDS011;6465;42.700;23.278;2024-01-07T05:52:30;8.73;;;7.57;;
12802;SDS011;6465;42.700;23.278;2024-01-07T05:54:57;7.53;;;6.80;;
12802;SDS011;6465;42.700;23.278;2024-01-07T05:57:24;8.97;;;7.03;;
12802;SDS011;6465;42.700;23.278;2024-01-07T05:59:51;7.47;;;6.80;;
12802;SDS011;6465;42.700;23.278;2024-01-07T06:02:18;8.47;;;7.10;;
12802;SDS011;6465;42.700;23.278;2024-01-07T06:04:46;9.10;;;7.03;;
12802;SDS011;6465;42.700;23.278;2024-01-07T06:07:13;10.20;;;7.37;;
12802;SDS011;6465;42.700;23.278;2024-01-07T06:09:41;10.07;;;7.70;;
12802;SDS011;6465;42.700;23.278;2024-01-07T06:12:08;9.50;;;7.67;;
12802;SDS011;6465;42.700;23.278;2024-01-07T06:14:35;10.83;;;8.83;;
12802;SDS011;6465;42.700;23.278;2024-01-07T06:17:02;9.40;;;8.43;;
12802;SDS011;6465;42.700;23.278;2024-01-07T06:19:29;12.33;;;9.07;;
12802;SDS011;6465;42.700;23.278;2024-01-07T06:21:56;11.07;;;9.03;;
12802;SDS011;6465;42.700;23.278;2024-01-07T06:24:23;11.87;;;9.93;;
12802;SDS011;6465;42.700;23.278;2024-01-07T06:26:51;10.80;;;9.40;;
12802;SDS011;6465;42.700;23.278;2024-01-07T06:29:18;11.13;;;8.77;;
12802;SDS011;6465;42.700;23.278;2024-01-07T06:31:45;12.50;;;9.30;;
12802;SDS011;6465;42.700;23.278;2024-01-07T06:34:13;10.43;;;9.43;;
12802;SDS011;6465;42.700;23.278;2024-01-07T06:36:40;24.97;;;19.80;;
12802;SDS011;6465;42.700;23.278;2024-01-07T06:39:07;42.13;;;30.53;;
12802;SDS011;6465;42.700;23.278;2024-01-07T06:41:34;41.60;;;32.77;;
12802;SDS011;6465;42.700;23.278;2024-01-07T06:44:03;43.77;;;33.70;;
12802;SDS011;6465;42.700;23.278;2024-01-07T06:46:30;38.23;;;32.03;;
12802;SDS011;6465;42.700;23.278;2024-01-07T06:48:59;44.93;;;33.17;;
12802;SDS011;6465;42.700;23.278;2024-01-07T06:51:26;36.37;;;29.67;;
12802;SDS011;6465;42.700;23.278;2024-01-07T06:53:53;26.43;;;21.30;;
12802;SDS011;6465;42.700;23.278;2024-01-07T06:56:20;24.03;;;17.90;;
12802;SDS011;6465;42.700;23.278;2024-01-07T06:58:47;16.30;;;14.60;;
12802;SDS011;6465;42.700;23.278;2024-01-07T07:01:19;16.67;;;12.97;;
12802;SDS011;6465;42.700;23.278;2024-01-07T07:03:46;12.57;;;11.27;;
12802;SDS011;6465;42.700;23.278;2024-01-07T07:06:14;11.57;;;10.37;;
12802;SDS011;6465;42.700;23.278;2024-01-07T07:08:41;15.20;;;10.03;;
12802;SDS011;6465;42.700;23.278;2024-01-07T07:11:08;18.97;;;13.60;;
12802;SDS011;6465;42.700;23.278;2024-01-07T07:13:35;43.27;;;32.90;;
12802;SDS011;6465;42.700;23.278;2024-01-07T07:16:03;36.13;;;27.70;;
12802;SDS011;6465;42.700;23.278;2024-01-07T07:18:32;30.30;;;25.50;;
12802;SDS011;6465;42.700;23.278;2024-01-07T07:20:59;19.57;;;17.40;;
12802;SDS011;6465;42.700;23.278;2024-01-07T07:23:26;22.77;;;18.57;;
12802;SDS011;6465;42.700;23.278;2024-01-07T07:25:53;24.07;;;19.93;;
12802;SDS011;6465;42.700;23.278;2024-01-07T07:28:20;46.20;;;36.27;;
12802;SDS011;6465;42.700;23.278;2024-01-07T07:30:46;26.17;;;20.87;;
12802;SDS011;6465;42.700;23.278;2024-01-07T07:33:13;15.70;;;13.60;;
12802;SDS011;6465;42.700;23.278;2024-01-07T07:35:41;20.37;;;17.13;;
12802;SDS011;6465;42.700;23.278;2024-01-07T07:38:08;30.07;;;24.83;;
12802;SDS011;6465;42.700;23.278;2024-01-07T07:40:35;48.37;;;38.87;;
12802;SDS011;6465;42.700;23.278;2024-01-07T07:43:02;42.10;;;34.37;;
12802;SDS011;6465;42.700;23.278;2024-01-07T07:45:29;36.17;;;31.33;;
12802;SDS011;6465;42.700;23.278;2024-01-07T07:47:56;40.70;;;33.40;;
12802;SDS011;6465;42.700;23.278;2024-01-07T07:50:23;23.27;;;19.27;;
12802;SDS011;6465;42.700;23.278;2024-01-07T07:52:51;26.93;;;22.27;;
12802;SDS011;6465;42.700;23.278;2024-01-07T07:55:19;23.33;;;20.27;;
12802;SDS011;6465;42.700;23.278;2024-01-07T07:57:46;17.33;;;13.47;;
12802;SDS011;6465;42.700;23.278;2024-01-07T08:00:13;13.40;;;11.93;;
12802;SDS011;6465;42.700;23.278;2024-01-07T08:02:40;13.67;;;12.27;;
12802;SDS011;6465;42.700;23.278;2024-01-07T08:05:07;13.80;;;12.47;;
12802;SDS011;6465;42.700;23.278;2024-01-07T08:07:35;13.23;;;11.87;;
12802;SDS011;6465;42.700;23.278;2024-01-07T08:10:03;13.90;;;12.40;;
12802;SDS011;6465;42.700;23.278;2024-01-07T08:12:31;15.17;;;12.80;;
12802;SDS011;6465;42.700;23.278;2024-01-07T08:14:58;46.60;;;36.20;;
12802;SDS011;6465;42.700;23.278;2024-01-07T08:17:25;54.60;;;45.13;;
12802;SDS011;6465;42.700;23.278;2024-01-07T08:19:53;50.50;;;43.00;;
12802;SDS011;6465;42.700;23.278;2024-01-07T08:22:20;20.63;;;17.73;;
12802;SDS011;6465;42.700;23.278;2024-01-07T08:24:47;20.50;;;18.30;;
12802;SDS011;6465;42.700;23.278;2024-01-07T08:27:16;19.67;;;15.60;;
12802;SDS011;6465;42.700;23.278;2024-01-07T08:29:43;18.80;;;14.87;;
12802;SDS011;6465;42.700;23.278;2024-01-07T08:32:10;17.20;;;14.40;;
12802;SDS011;6465;42.700;23.278;2024-01-07T08:34:38;16.13;;;13.50;;
12802;SDS011;6465;42.700;23.278;2024-01-07T08:37:06;14.83;;;13.33;;
12802;SDS011;6465;42.700;23.278;2024-01-07T08:39:33;15.47;;;12.90;;
12802;SDS011;6465;42.700;23.278;2024-01-07T08:42:00;15.00;;;13.03;;
12802;SDS011;6465;42.700;23.278;2024-01-07T08:44:30;14.57;;;13.03;;
12802;SDS011;6465;42.700;23.278;2024-01-07T08:46:57;14.97;;;13.43;;
12802;SDS011;6465;42.700;23.278;2024-01-07T08:49:26;15.17;;;13.50;;
12802;SDS011;6465;42.700;23.278;2024-01-07T08:51:54;17.40;;;14.43;;
12802;SDS011;6465;42.700;23.278;2024-01-07T08:54:21;16.30;;;13.83;;
12802;SDS011;6465;42.700;23.278;2024-01-07T08:56:48;13.20;;;11.93;;
12802;SDS011;6465;42.700;23.278;2024-01-07T08:59:15;12.70;;;11.50;;
12802;SDS011;6465;42.700;23.278;2024-01-07T09:01:44;13.90;;;11.63;;
12802;SDS011;6465;42.700;23.278;2024-01-07T09:04:11;14.43;;;12.50;;
12802;SDS011;6465;42.700;23.278;2024-01-07T09:06:38;15.10;;;13.50;;
12802;SDS011;6465;42.700;23.278;2024-01-07T09:09:05;14.93;;;12.33;;
12802;SDS011;6465;42.700;23.278;2024-01-07T09:11:33;14.93;;;13.40;;
12802;SDS011;6465;42.700;23.278;2024-01-07T09:14:01;25.83;;;23.07;;
12802;SDS011;6465;42.700;23.278;2024-01-07T09:16:29;79.83;;;63.47;;
12802;SDS011;6465;42.700;23.278;2024-01-07T09:18:57;25.07;;;20.27;;
12802;SDS011;6465;42.700;23.278;2024-01-07T09:21:24;14.07;;;12.67;;
12802;SDS011;6465;42.700;23.278;2024-01-07T09:23:51;13.53;;;12.13;;
12802;SDS011;6465;42.700;23.278;2024-01-07T09:26:18;12.80;;;10.73;;
12802;SDS011;6465;42.700;23.278;2024-01-07T09:28:45;13.47;;;10.30;;
12802;SDS011;6465;42.700;23.278;2024-01-07T09:31:12;11.40;;;9.80;;
12802;SDS011;6465;42.700;23.278;2024-01-07T09:33:40;12.17;;;10.90;;
12802;SDS011;6465;42.700;23.278;2024-01-07T09:36:09;11.53;;;10.40;;
12802;SDS011;6465;42.700;23.278;2024-01-07T09:38:36;12.10;;;10.83;;
12802;SDS011;6465;42.700;23.278;2024-01-07T09:41:03;11.47;;;10.40;;
12802;SDS011;6465;42.700;23.278;2024-01-07T09:43:31;11.47;;;10.27;;
12802;SDS011;6465;42.700;23.278;2024-01-07T09:45:58;11.23;;;10.20;;
12802;SDS011;6465;42.700;23.278;2024-01-07T09:48:26;14.77;;;11.13;;
12802;SDS011;6465;42.700;23.278;2024-01-07T09:50:53;10.80;;;9.63;;
12802;SDS011;6465;42.700;23.278;2024-01-07T09:53:21;10.70;;;9.00;;
12802;SDS011;6465;42.700;23.278;2024-01-07T09:55:55;9.47;;;8.47;;
12802;SDS011;6465;42.700;23.278;2024-01-07T09:58:27;10.07;;;8.47;;
12802;SDS011;6465;42.700;23.278;2024-01-07T10:00:55;10.43;;;9.33;;
12802;SDS011;6465;42.700;23.278;2024-01-07T10:03:22;125.60;;;99.13;;
12802;SDS011;6465;42.700;23.278;2024-01-07T10:05:49;14.17;;;12.07;;
12802;SDS011;6465;42.700;23.278;2024-01-07T10:08:16;8.43;;;7.43;;
12802;SDS011;6465;42.700;23.278;2024-01-07T10:10:45;9.53;;;7.63;;
12802;SDS011;6465;42.700;23.278;2024-01-07T10:13:12;8.37;;;7.43;;
12802;SDS011;6465;42.700;23.278;2024-01-07T10:15:38;6.67;;;5.97;;
12802;SDS011;6465;42.700;23.278;2024-01-07T10:18:06;10.00;;;6.77;;
12802;SDS011;6465;42.700;23.278;2024-01-07T10:20:34;6.93;;;6.23;;
12802;SDS011;6465;42.700;23.278;2024-01-07T10:23:01;6.97;;;6.27;;
12802;SDS011;6465;42.700;23.278;2024-01-07T10:25:30;9.27;;;7.23;;
12802;SDS011;6465;42.700;23.278;2024-01-07T10:28:00;7.73;;;5.60;;
12802;SDS011;6465;42.700;23.278;2024-01-07T10:30:27;5.97;;;3.80;;
12802;SDS011;6465;42.700;23.278;2024-01-07T10:32:55;5.07;;;4.17;;
12802;SDS011;6465;42.700;23.278;2024-01-07T10:35:25;6.20;;;3.63;;
12802;SDS011;6465;42.700;23.278;2024-01-07T10:37:55;3.87;;;3.20;;
12802;SDS011;6465;42.700;23.278;2024-01-07T10:40:22;5.20;;;3.43;;
12802;SDS011;6465;42.700;23.278;2024-01-07T10:42:51;3.50;;;2.30;;
12802;SDS011;6465;42.700;23.278;2024-01-07T10:45:22;2.83;;;2.63;;
12802;SDS011;6465;42.700;23.278;2024-01-07T10:47:49;8.07;;;4.13;;
12802;SDS011;6465;42.700;23.278;2024-01-07T10:50:17;4.70;;;3.10;;
12802;SDS011;6465;42.700;23.278;2024-01-07T10:52:47;6.23;;;3.30;;
12802;SDS011;6465;42.700;23.278;2024-01-07T10:55:17;21.07;;;14.80;;
12802;SDS011;6465;42.700;23.278;2024-01-07T10:57:46;38.83;;;26.27;;
12802;SDS011;6465;42.700;23.278;2024-01-07T11:00:15;6.13;;;3.97;;
12802;SDS011;6465;42.700;23.278;2024-01-07T11:02:51;6.53;;;4.67;;
12802;SDS011;6465;42.700;23.278;2024-01-07T11:05:26;5.60;;;3.70;;
12802;SDS011;6465;42.700;23.278;2024-01-07T11:10:45;7.03;;;5.30;;
12802;SDS011;6465;42.700;23.278;2024-01-07T11:16:00;6.30;;;5.30;;
12802;SDS011;6465;42.700;23.278;2024-01-07T11:18:30;23.47;;;17.90;;
12802;SDS011;6465;42.700;23.278;2024-01-07T11:20:59;10.03;;;8.70;;
12802;SDS011;6465;42.700;23.278;2024-01-07T11:23:28;16.47;;;11.00;;
12802;SDS011;6465;42.700;23.278;2024-01-07T11:25:58;7.93;;;7.10;;
12802;SDS011;6465;42.700;23.278;2024-01-07T11:28:44;13.57;;;10.77;;
12802;SDS011;6465;42.700;23.278;2024-01-07T11:31:13;10.43;;;8.87;;
12802;SDS011;6465;42.700;23.278;2024-01-07T11:33:43;11.57;;;7.00;;
12802;SDS011;6465;42.700;23.278;2024-01-07T11:36:11;7.67;;;6.87;;
12802;SDS011;6465;42.700;23.278;2024-01-07T11:38:42;7.80;;;6.07;;
12802;SDS011;6465;42.700;23.278;2024-01-07T11:41:11;6.77;;;5.70;;
12802;SDS011;6465;42.700;23.278;2024-01-07T11:46:23;6.80;;;6.20;;
12802;SDS011;6465;42.700;23.278;2024-01-07T11:48:54;6.60;;;5.90;;
12802;SDS011;6465;42.700;23.278;2024-01-07T11:51:24;6.75;;;5.53;;
12802;SDS011;6465;42.700;23.278;2024-01-07T11:53:51;8.67;;;6.40;;
12802;SDS011;6465;42.700;23.278;2024-01-07T11:56:18;6.80;;;5.97;;
12802;SDS011;6465;42.700;23.278;2024-01-07T11:58:45;16.00;;;13.67;;
12802;SDS011;6465;42.700;23.278;2024-01-07T12:01:14;11.00;;;9.17;;
12802;SDS011;6465;42.700;23.278;2024-01-07T12:03:43;6.87;;;5.77;;
12802;SDS011;6465;42.700;23.278;2024-01-07T12:06:11;6.57;;;5.50;;
12802;SDS011;6465;42.700;23.278;2024-01-07T12:08:40;6.50;;;5.90;;
12802;SDS011;6465;42.700;23.278;2024-01-07T12:11:08;9.60;;;6.10;;
12802;SDS011;6465;42.700;23.278;2024-01-07T12:13:35;6.83;;;5.63;;
12802;SDS011;6465;42.700;23.278;2024-01-07T12:16:04;14.43;;;7.07;;
12802;SDS011;6465;42.700;23.278;2024-01-07T12:18:31;8.97;;;7.50;;
12802;SDS011;6465;42.700;23.278;2024-01-07T12:20:58;9.02;;;6.78;;
12802;SDS011;6465;42.700;23.278;2024-01-07T12:23:27;6.32;;;5.72;;
12802;SDS011;6465;42.700;23.278;2024-01-07T12:25:55;5.95;;;4.93;;
12802;SDS011;6465;42.700;23.278;2024-01-07T12:28:34;5.82;;;5.28;;
12802;SDS011;6465;42.700;23.278;2024-01-07T12:31:01;5.95;;;5.45;;
12802;SDS011;6465;42.700;23.278;2024-01-07T12:33:29;12.15;;;6.28;;
12802;SDS011;6465;42.700;23.278;2024-01-07T12:35:57;7.65;;;5.65;;
12802;SDS011;6465;42.700;23.278;2024-01-07T12:38:24;9.07;;;5.72;;
12802;SDS011;6465;42.700;23.278;2024-01-07T12:40:53;7.88;;;6.07;;
12802;SDS011;6465;42.700;23.278;2024-01-07T12:43:20;6.88;;;5.82;;
12802;SDS011;6465;42.700;23.278;2024-01-07T12:45:47;6.65;;;5.78;;
12802;SDS011;6465;42.700;23.278;2024-01-07T12:48:15;6.30;;;5.70;;
12802;SDS011;6465;42.700;23.278;2024-01-07T12:50:42;10.38;;;6.50;;
12802;SDS011;6465;42.700;23.278;2024-01-07T12:53:09;14.10;;;7.90;;
12802;SDS011;6465;42.700;23.278;2024-01-07T12:55:36;8.40;;;6.55;;
12802;SDS011;6465;42.700;23.278;2024-01-07T12:58:04;8.75;;;6.50;;
12802;SDS011;6465;42.700;23.278;2024-01-07T13:00:31;9.90;;;6.78;;
12802;SDS011;6465;42.700;23.278;2024-01-07T13:03:00;7.88;;;6.22;;
12802;SDS011;6465;42.700;23.278;2024-01-07T13:05:29;9.02;;;7.28;;
12802;SDS011;6465;42.700;23.278;2024-01-07T13:07:56;8.60;;;7.53;;
12802;SDS011;6465;42.700;23.278;2024-01-07T13:10:23;8.25;;;7.07;;
12802;SDS011;6465;42.700;23.278;2024-01-07T13:12:50;11.83;;;7.47;;
12802;SDS011;6465;42.700;23.278;2024-01-07T13:15:19;9.33;;;6.23;;
12802;SDS011;6465;42.700;23.278;2024-01-07T13:17:47;6.80;;;6.10;;
12802;SDS011;6465;42.700;23.278;2024-01-07T13:20:14;10.48;;;6.15;;
12802;SDS011;6465;42.700;23.278;2024-01-07T13:22:45;7.90;;;6.43;;
12802;SDS011;6465;42.700;23.278;2024-01-07T13:25:12;9.95;;;6.55;;
12802;SDS011;6465;42.700;23.278;2024-01-07T13:27:39;8.60;;;5.90;;
12802;SDS011;6465;42.700;23.278;2024-01-07T13:30:07;9.18;;;6.38;;
12802;SDS011;6465;42.700;23.278;2024-01-07T13:32:36;7.88;;;6.40;;
12802;SDS011;6465;42.700;23.278;2024-01-07T13:35:04;7.32;;;6.60;;
12802;SDS011;6465;42.700;23.278;2024-01-07T13:37:31;11.38;;;6.65;;
12802;SDS011;6465;42.700;23.278;2024-01-07T13:39:58;7.68;;;6.60;;
12802;SDS011;6465;42.700;23.278;2024-01-07T13:42:26;8.18;;;6.20;;
12802;SDS011;6465;42.700;23.278;2024-01-07T13:44:53;8.95;;;6.55;;
12802;SDS011;6465;42.700;23.278;2024-01-07T13:47:19;9.32;;;6.97;;
12802;SDS011;6465;42.700;23.278;2024-01-07T13:49:48;6.88;;;6.18;;
12802;SDS011;6465;42.700;23.278;2024-01-07T13:52:15;63.25;;;43.00;;
12802;SDS011;6465;42.700;23.278;2024-01-07T13:54:42;74.60;;;46.92;;
12802;SDS011;6465;42.700;23.278;2024-01-07T13:57:08;66.38;;;45.05;;
12802;SDS011;6465;42.700;23.278;2024-01-07T13:59:35;34.17;;;21.03;;
12802;SDS011;6465;42.700;23.278;2024-01-07T14:02:02;20.48;;;16.65;;
12802;SDS011;6465;42.700;23.278;2024-01-07T14:04:30;19.43;;;14.27;;
12802;SDS011;6465;42.700;23.278;2024-01-07T14:06:59;18.27;;;14.80;;
12802;SDS011;6465;42.700;23.278;2024-01-07T14:09:26;24.52;;;18.65;;
12802;SDS011;6465;42.700;23.278;2024-01-07T14:11:56;48.30;;;43.27;;
12802;SDS011;6465;42.700;23.278;2024-01-07T14:14:23;33.43;;;29.80;;
12802;SDS011;6465;42.700;23.278;2024-01-07T14:16:50;20.87;;;18.10;;
12802;SDS011;6465;42.700;23.278;2024-01-07T14:19:17;19.03;;;15.60;;
12802;SDS011;6465;42.700;23.278;2024-01-07T14:21:44;19.87;;;15.77;;
12802;SDS011;6465;42.700;23.278;2024-01-07T14:24:12;17.25;;;14.05;;
12802;SDS011;6465;42.700;23.278;2024-01-07T14:26:39;17.20;;;14.40;;
12802;SDS011;6465;42.700;23.278;2024-01-07T14:29:07;17.42;;;15.43;;
12802;SDS011;6465;42.700;23.278;2024-01-07T14:31:34;16.60;;;12.80;;
12802;SDS011;6465;42.700;23.278;2024-01-07T14:34:01;14.07;;;10.95;;
12802;SDS011;6465;42.700;23.278;2024-01-07T14:36:29;12.20;;;10.83;;
12802;SDS011;6465;42.700;23.278;2024-01-07T14:38:55;13.30;;;11.37;;
12802;SDS011;6465;42.700;23.278;2024-01-07T14:41:24;134.33;;;120.03;;